sensor_id;sensor_type;location;lat;lon;timestamp;pressure;altitude;pressure_sealevel;temperature;humidity
18755;BME280;35061;47.664;9.166;2023-09-18T00:01:21;101089.45;;;19.09;96.30
18755;BME280;35061;47.664;9.166;2023-09-18T00:03:49;101081.86;;;19.06;96.36
18755;BME280;35061;47.664;9.166;2023-09-18T00:06:17;101085.84;;;19.03;96.31
18755;BME280;35061;47.664;9.166;2023-09-18T00:08:45;101099.68;;;18.91;96.86
18755;BME280;35061;47.664;9.166;2023-09-18T00:11:12;101096.38;;;18.81;97.24
18755;BME280;35061;47.664;9.166;2023-09-18T00:13:40;101072.47;;;18.75;98.13
18755;BME280;35061;47.664;9.166;2023-09-18T00:16:08;101069.92;;;18.91;98.12
18755;BME280;35061;47.664;9.166;2023-09-18T00:18:36;101064.20;;;19.04;97.69
18755;BME280;35061;47.664;9.166;2023-09-18T00:21:04;101073.23;;;19.01;98.19
18755;BME280;35061;47.664;9.166;2023-09-18T00:23:34;101071.72;;;19.13;98.29
18755;BME280;35061;47.664;9.166;2023-09-18T00:26:03;101064.43;;;19.06;98.66
18755;BME280;35061;47.664;9.166;2023-09-18T00:28:31;101071.27;;;19.09;98.77
18755;BME280;35061;47.664;9.166;2023-09-18T00:30:59;101059.82;;;19.17;99.21
18755;BME280;35061;47.664;9.166;2023-09-18T00:33:27;101067.89;;;19.24;98.71
18755;BME280;35061;47.664;9.166;2023-09-18T00:35:55;101059.59;;;19.15;99.70
18755;BME280;35061;47.664;9.166;2023-09-18T00:38:23;101060.66;;;19.11;100.00
18755;BME280;35061;47.664;9.166;2023-09-18T00:40:51;101067.05;;;19.10;100.00
18755;BME280;35061;47.664;9.166;2023-09-18T00:43:19;101067.44;;;19.01;100.00
18755;BME280;35061;47.664;9.166;2023-09-18T00:45:48;101070.15;;;18.93;100.00
18755;BME280;35061;47.664;9.166;2023-09-18T00:48:17;101057.82;;;18.87;100.00
18755;BME280;35061;47.664;9.166;2023-09-18T00:50:45;101060.18;;;18.88;100.00
18755;BME280;35061;47.664;9.166;2023-09-18T00:53:17;101056.55;;;18.82;100.00
18755;BME280;35061;47.664;9.166;2023-09-18T00:55:46;101053.73;;;18.95;100.00
18755;BME280;35061;47.664;9.166;2023-09-18T00:58:15;101055.01;;;19.00;100.00
18755;BME280;35061;47.664;9.166;2023-09-18T01:00:44;101054.62;;;18.90;100.00
18755;BME280;35061;47.664;9.166;2023-09-18T01:03:12;101050.66;;;18.88;100.00
18755;BME280;35061;47.664;9.166;2023-09-18T01:05:40;101049.95;;;19.06;100.00
18755;BME280;35061;47.664;9.166;2023-09-18T01:08:08;101054.09;;;19.11;100.00
18755;BME280;35061;47.664;9.166;2023-09-18T01:10:43;101043.01;;;19.09;100.00
18755;BME280;35061;47.664;9.166;2023-09-18T01:13:22;101029.93;;;19.03;100.00
18755;BME280;35061;47.664;9.166;2023-09-18T01:15:54;101027.09;;;19.35;100.00
18755;BME280;35061;47.664;9.166;2023-09-18T01:18:25;101025.52;;;19.34;100.00
18755;BME280;35061;47.664;9.166;2023-09-18T01:20:53;101014.46;;;19.33;100.00
18755;BME280;35061;47.664;9.166;2023-09-18T01:23:21;101005.38;;;19.23;100.00
18755;BME280;35061;47.664;9.166;2023-09-18T01:25:49;101007.27;;;19.20;100.00
18755;BME280;35061;47.664;9.166;2023-09-18T01:28:17;101001.84;;;19.11;100.00
18755;BME280;35061;47.664;9.166;2023-09-18T01:30:45;101001.16;;;19.05;100.00
18755;BME280;35061;47.664;9.166;2023-09-18T01:33:14;100995.70;;;18.95;100.00
18755;BME280;35061;47.664;9.166;2023-09-18T01:35:43;100989.58;;;18.99;100.00
18755;BME280;35061;47.664;9.166;2023-09-18T01:38:12;100991.41;;;19.21;100.00
18755;BME280;35061;47.664;9.166;2023-09-18T01:40:41;100974.53;;;19.20;100.00
18755;BME280;35061;47.664;9.166;2023-09-18T01:43:09;100951.97;;;19.13;100.00
18755;BME280;35061;47.664;9.166;2023-09-18T01:45:37;100952.95;;;19.34;100.00
18755;BME280;35061;47.664;9.166;2023-09-18T01:48:06;100955.05;;;19.34;100.00
18755;BME280;35061;47.664;9.166;2023-09-18T01:50:36;100944.98;;;19.21;100.00
18755;BME280;35061;47.664;9.166;2023-09-18T01:53:04;100942.59;;;19.39;100.00
18755;BME280;35061;47.664;9.166;2023-09-18T01:55:32;100949.09;;;19.59;100.00
18755;BME280;35061;47.664;9.166;2023-09-18T01:58:00;100944.05;;;19.46;100.00
18755;BME280;35061;47.664;9.166;2023-09-18T02:00:29;100951.97;;;19.45;100.00
18755;BME280;35061;47.664;9.166;2023-09-18T02:02:57;100946.94;;;19.46;100.00
18755;BME280;35061;47.664;9.166;2023-09-18T02:05:45;100959.10;;;19.44;100.00
18755;BME280;35061;47.664;9.166;2023-09-18T02:08:13;100949.68;;;19.38;100.00
18755;BME280;35061;47.664;9.166;2023-09-18T02:10:41;100937.23;;;19.43;100.00
18755;BME280;35061;47.664;9.166;2023-09-18T02:13:09;100938.80;;;19.44;100.00
18755;BME280;35061;47.664;9.166;2023-09-18T02:15:38;100939.09;;;19.41;100.00
18755;BME280;35061;47.664;9.166;2023-09-18T02:18:06;100945.98;;;19.24;100.00
18755;BME280;35061;47.664;9.166;2023-09-18T02:20:43;100937.45;;;19.13;100.00
18755;BME280;35061;47.664;9.166;2023-09-18T02:23:15;100941.15;;;19.13;100.00
18755;BME280;35061;47.664;9.166;2023-09-18T02:25:44;100945.07;;;19.16;100.00
18755;BME280;35061;47.664;9.166;2023-09-18T02:28:12;100949.52;;;18.97;100.00
18755;BME280;35061;47.664;9.166;2023-09-18T02:30:40;100953.87;;;18.91;100.00
18755;BME280;35061;47.664;9.166;2023-09-18T02:33:08;100939.97;;;18.83;100.00
18755;BME280;35061;47.664;9.166;2023-09-18T02:35:36;100938.63;;;18.85;100.00
18755;BME280;35061;47.664;9.166;2023-09-18T02:38:04;100947.27;;;18.90;100.00
18755;BME280;35061;47.664;9.166;2023-09-18T02:40:32;100952.82;;;18.88;100.00
18755;BME280;35061;47.664;9.166;2023-09-18T02:43:00;100957.37;;;18.83;100.00
18755;BME280;35061;47.664;9.166;2023-09-18T02:45:29;100952.76;;;18.75;100.00
18755;BME280;35061;47.664;9.166;2023-09-18T02:47:57;100940.69;;;18.71;100.00
18755;BME280;35061;47.664;9.166;2023-09-18T02:50:25;100942.09;;;18.64;100.00
18755;BME280;35061;47.664;9.166;2023-09-18T02:52:53;100949.06;;;18.55;100.00
18755;BME280;35061;47.664;9.166;2023-09-18T02:55:21;100968.35;;;18.52;100.00
18755;BME280;35061;47.664;9.166;2023-09-18T02:57:49;100971.00;;;18.50;100.00
18755;BME280;35061;47.664;9.166;2023-09-18T03:00:17;100969.44;;;18.49;100.00
18755;BME280;35061;47.664;9.166;2023-09-18T03:03:05;100983.13;;;18.49;100.00
18755;BME280;35061;47.664;9.166;2023-09-18T03:05:34;100993.47;;;18.44;100.00
18755;BME280;35061;47.664;9.166;2023-09-18T03:08:02;101004.62;;;18.40;100.00
18755;BME280;35061;47.664;9.166;2023-09-18T03:10:38;101010.41;;;18.40;100.00
18755;BME280;35061;47.664;9.166;2023-09-18T03:13:08;101036.01;;;18.36;100.00
18755;BME280;35061;47.664;9.166;2023-09-18T03:15:37;101039.25;;;18.26;100.00
18755;BME280;35061;47.664;9.166;2023-09-18T03:18:06;101043.50;;;18.25;100.00
18755;BME280;35061;47.664;9.166;2023-09-18T03:20:35;101050.86;;;18.26;100.00
18755;BME280;35061;47.664;9.166;2023-09-18T03:23:03;101048.21;;;18.29;100.00
18755;BME280;35061;47.664;9.166;2023-09-18T03:25:31;101037.98;;;18.27;100.00
18755;BME280;35061;47.664;9.166;2023-09-18T03:28:17;101039.77;;;18.31;100.00
18755;BME280;35061;47.664;9.166;2023-09-18T03:30:46;101042.12;;;18.32;100.00
18755;BME280;35061;47.664;9.166;2023-09-18T03:33:14;101045.49;;;18.36;100.00
18755;BME280;35061;47.664;9.166;2023-09-18T03:35:48;101058.12;;;18.39;100.00
18755;BME280;35061;47.664;9.166;2023-09-18T03:38:17;101068.84;;;18.44;100.00
18755;BME280;35061;47.664;9.166;2023-09-18T03:40:45;101064.40;;;18.43;100.00
18755;BME280;35061;47.664;9.166;2023-09-18T03:43:13;101057.27;;;18.44;100.00
18755;BME280;35061;47.664;9.166;2023-09-18T03:45:41;101053.84;;;18.46;100.00
18755;BME280;35061;47.664;9.166;2023-09-18T03:48:10;101046.15;;;18.48;100.00
18755;BME280;35061;47.664;9.166;2023-09-18T03:50:39;101039.18;;;18.57;100.00
18755;BME280;35061;47.664;9.166;2023-09-18T03:53:09;101030.42;;;18.63;100.00
18755;BME280;35061;47.664;9.166;2023-09-18T03:55:37;101044.25;;;18.76;100.00
18755;BME280;35061;47.664;9.166;2023-09-18T03:58:05;101056.09;;;18.78;100.00
18755;BME280;35061;47.664;9.166;2023-09-18T04:00:34;101061.32;;;18.79;100.00
18755;BME280;35061;47.664;9.166;2023-09-18T04:03:03;101048.14;;;18.78;100.00
18755;BME280;35061;47.664;9.166;2023-09-18T04:05:31;101048.08;;;18.84;100.00
18755;BME280;35061;47.664;9.166;2023-09-18T04:07:59;101046.21;;;18.87;100.00
18755;BME280;35061;47.664;9.166;2023-09-18T04:10:27;101042.78;;;18.88;100.00
18755;BME280;35061;47.664;9.166;2023-09-18T04:12:55;101037.19;;;18.90;100.00
18755;BME280;35061;47.664;9.166;2023-09-18T04:15:23;101044.58;;;18.91;100.00
18755;BME280;35061;47.664;9.166;2023-09-18T04:17:51;101040.33;;;18.92;100.00
18755;BME280;35061;47.664;9.166;2023-09-18T04:20:19;101038.14;;;18.99;100.00
18755;BME280;35061;47.664;9.166;2023-09-18T04:22:47;101052.91;;;19.01;100.00
18755;BME280;35061;47.664;9.166;2023-09-18T04:25:20;101048.41;;;19.00;100.00
18755;BME280;35061;47.664;9.166;2023-09-18T04:27:50;101046.57;;;19.02;100.00
18755;BME280;35061;47.664;9.166;2023-09-18T04:30:20;101047.91;;;19.01;100.00
18755;BME280;35061;47.664;9.166;2023-09-18T04:32:48;101048.41;;;19.00;98.80
18755;BME280;35061;47.664;9.166;2023-09-18T04:35:16;101054.00;;;18.97;98.00
18755;BME280;35061;47.664;9.166;2023-09-18T04:37:44;101063.22;;;18.96;97.46
18755;BME280;35061;47.664;9.166;2023-09-18T04:40:12;101058.84;;;18.89;96.36
18755;BME280;35061;47.664;9.166;2023-09-18T04:42:40;101056.71;;;18.90;96.06
18755;BME280;35061;47.664;9.166;2023-09-18T04:45:10;101051.48;;;18.88;96.15
18755;BME280;35061;47.664;9.166;2023-09-18T04:47:38;101049.12;;;18.87;95.67
18755;BME280;35061;47.664;9.166;2023-09-18T04:50:06;101057.82;;;18.87;95.95
18755;BME280;35061;47.664;9.166;2023-09-18T04:52:39;101068.65;;;18.86;95.81
18755;BME280;35061;47.664;9.166;2023-09-18T04:55:08;101075.52;;;18.83;95.71
18755;BME280;35061;47.664;9.166;2023-09-18T04:57:37;101096.93;;;18.80;95.65
18755;BME280;35061;47.664;9.166;2023-09-18T05:00:05;101095.88;;;18.77;95.93
18755;BME280;35061;47.664;9.166;2023-09-18T05:02:43;101086.96;;;18.75;95.85
18755;BME280;35061;47.664;9.166;2023-09-18T05:05:12;101079.05;;;18.76;95.97
18755;BME280;35061;47.664;9.166;2023-09-18T05:07:42;101087.41;;;18.79;96.17
18755;BME280;35061;47.664;9.166;2023-09-18T05:10:10;101105.40;;;18.78;95.88
18755;BME280;35061;47.664;9.166;2023-09-18T05:12:39;101099.58;;;18.78;96.50
18755;BME280;35061;47.664;9.166;2023-09-18T05:15:08;101098.50;;;18.81;95.97
18755;BME280;35061;47.664;9.166;2023-09-18T05:17:44;101097.39;;;18.84;96.42
18755;BME280;35061;47.664;9.166;2023-09-18T05:20:16;101093.73;;;18.83;95.84
18755;BME280;35061;47.664;9.166;2023-09-18T05:22:45;101101.37;;;18.81;95.89
18755;BME280;35061;47.664;9.166;2023-09-18T05:25:14;101112.46;;;18.82;95.94
18755;BME280;35061;47.664;9.166;2023-09-18T05:27:43;101107.43;;;18.83;95.84
18755;BME280;35061;47.664;9.166;2023-09-18T05:30:19;101110.83;;;18.87;95.88
18755;BME280;35061;47.664;9.166;2023-09-18T05:32:51;101116.55;;;18.93;95.82
18755;BME280;35061;47.664;9.166;2023-09-18T05:35:19;101129.73;;;18.94;95.57
18755;BME280;35061;47.664;9.166;2023-09-18T05:37:47;101126.59;;;18.92;95.52
18755;BME280;35061;47.664;9.166;2023-09-18T05:40:15;101133.66;;;18.96;95.66
18755;BME280;35061;47.664;9.166;2023-09-18T05:42:43;101118.32;;;19.02;95.80
18755;BME280;35061;47.664;9.166;2023-09-18T05:45:12;101116.68;;;19.06;95.26
18755;BME280;35061;47.664;9.166;2023-09-18T05:47:41;101100.53;;;19.11;95.18
18755;BME280;35061;47.664;9.166;2023-09-18T05:50:11;101090.16;;;19.16;95.02
18755;BME280;35061;47.664;9.166;2023-09-18T05:52:44;101098.08;;;19.15;94.46
18755;BME280;35061;47.664;9.166;2023-09-18T05:55:13;101093.07;;;19.16;94.39
18755;BME280;35061;47.664;9.166;2023-09-18T05:57:41;101092.19;;;19.21;94.24
18755;BME280;35061;47.664;9.166;2023-09-18T06:00:10;101095.36;;;19.23;94.01
18755;BME280;35061;47.664;9.166;2023-09-18T06:02:40;101090.26;;;19.29;93.97
18755;BME280;35061;47.664;9.166;2023-09-18T06:05:08;101078.33;;;19.33;93.87
18755;BME280;35061;47.664;9.166;2023-09-18T06:07:39;101093.20;;;19.43;93.79
18755;BME280;35061;47.664;9.166;2023-09-18T06:10:07;101090.55;;;19.45;93.56
18755;BME280;35061;47.664;9.166;2023-09-18T06:12:38;101072.34;;;19.44;93.51
18755;BME280;35061;47.664;9.166;2023-09-18T06:15:08;101072.57;;;19.46;93.47
18755;BME280;35061;47.664;9.166;2023-09-18T06:17:41;101070.48;;;19.47;93.48
18755;BME280;35061;47.664;9.166;2023-09-18T06:20:10;101074.70;;;19.46;93.11
18755;BME280;35061;47.664;9.166;2023-09-18T06:22:40;101073.39;;;19.47;92.92
18755;BME280;35061;47.664;9.166;2023-09-18T06:25:09;101073.62;;;19.49;92.55
18755;BME280;35061;47.664;9.166;2023-09-18T06:27:38;101088.33;;;19.51;92.56
18755;BME280;35061;47.664;9.166;2023-09-18T06:30:06;101105.99;;;19.53;92.33
18755;BME280;35061;47.664;9.166;2023-09-18T06:32:34;101109.16;;;19.55;92.45
18755;BME280;35061;47.664;9.166;2023-09-18T06:35:05;101113.64;;;19.56;92.30
18755;BME280;35061;47.664;9.166;2023-09-18T06:37:33;101102.78;;;19.57;92.11
18755;BME280;35061;47.664;9.166;2023-09-18T06:40:01;101103.57;;;19.57;91.76
18755;BME280;35061;47.664;9.166;2023-09-18T06:42:32;101104.35;;;19.58;91.62
18755;BME280;35061;47.664;9.166;2023-09-18T06:45:00;101122.57;;;19.58;nan
18755;BME280;35061;47.664;9.166;2023-09-18T06:47:29;101133.88;;;19.62;91.29
18755;BME280;35061;47.664;9.166;2023-09-18T06:49:57;101150.20;;;19.65;91.29
18755;BME280;35061;47.664;9.166;2023-09-18T06:52:26;101153.90;;;19.65;91.25
18755;BME280;35061;47.664;9.166;2023-09-18T06:54:55;101152.78;;;19.69;91.21
18755;BME280;35061;47.664;9.166;2023-09-18T06:57:25;101158.84;;;19.71;91.23
18755;BME280;35061;47.664;9.166;2023-09-18T06:59:53;101154.02;;;19.73;91.36
18755;BME280;35061;47.664;9.166;2023-09-18T07:02:21;101178.32;;;19.76;91.27
18755;BME280;35061;47.664;9.166;2023-09-18T07:04:50;101176.49;;;19.73;90.63
18755;BME280;35061;47.664;9.166;2023-09-18T07:07:18;101183.09;;;19.73;91.25
18755;BME280;35061;47.664;9.166;2023-09-18T07:09:52;101180.19;;;19.73;91.29
18755;BME280;35061;47.664;9.166;2023-09-18T07:12:23;101182.51;;;19.75;91.37
18755;BME280;35061;47.664;9.166;2023-09-18T07:14:51;101191.50;;;19.77;91.35
18755;BME280;35061;47.664;9.166;2023-09-18T07:17:19;101190.91;;;19.78;91.31
18755;BME280;35061;47.664;9.166;2023-09-18T07:19:47;101194.05;;;19.80;91.21
18755;BME280;35061;47.664;9.166;2023-09-18T07:22:16;101194.31;;;19.83;91.32
18755;BME280;35061;47.664;9.166;2023-09-18T07:24:45;101204.84;;;19.86;91.28
18755;BME280;35061;47.664;9.166;2023-09-18T07:27:14;101218.02;;;19.87;90.90
18755;BME280;35061;47.664;9.166;2023-09-18T07:29:42;101217.70;;;19.90;90.54
18755;BME280;35061;47.664;9.166;2023-09-18T07:32:10;101219.00;;;19.95;90.48
18755;BME280;35061;47.664;9.166;2023-09-18T07:34:45;101220.24;;;20.00;90.30
18755;BME280;35061;47.664;9.166;2023-09-18T07:37:15;101226.52;;;20.04;90.24
18755;BME280;35061;47.664;9.166;2023-09-18T07:39:43;101213.54;;;20.05;88.71
18755;BME280;35061;47.664;9.166;2023-09-18T07:42:11;101218.02;;;20.06;87.03
18755;BME280;35061;47.664;9.166;2023-09-18T07:44:39;101241.76;;;20.10;86.62
18755;BME280;35061;47.664;9.166;2023-09-18T07:47:07;101237.18;;;20.15;86.54
18755;BME280;35061;47.664;9.166;2023-09-18T07:49:35;101240.09;;;20.15;84.08
18755;BME280;35061;47.664;9.166;2023-09-18T07:52:03;101249.28;;;20.19;84.27
18755;BME280;35061;47.664;9.166;2023-09-18T07:54:31;101240.23;;;20.22;83.87
18755;BME280;35061;47.664;9.166;2023-09-18T07:56:59;101233.88;;;20.24;82.99
18755;BME280;35061;47.664;9.166;2023-09-18T07:59:29;101241.80;;;20.24;81.58
18755;BME280;35061;47.664;9.166;2023-09-18T08:01:57;101238.88;;;20.24;81.03
18755;BME280;35061;47.664;9.166;2023-09-18T08:04:25;101241.37;;;20.19;80.68
18755;BME280;35061;47.664;9.166;2023-09-18T08:06:53;101236.89;;;20.18;80.21
18755;BME280;35061;47.664;9.166;2023-09-18T08:09:21;101245.36;;;20.16;80.18
18755;BME280;35061;47.664;9.166;2023-09-18T08:11:50;101248.23;;;20.16;80.63
18755;BME280;35061;47.664;9.166;2023-09-18T08:14:18;101250.69;;;20.12;80.16
18755;BME280;35061;47.664;9.166;2023-09-18T08:16:46;101258.18;;;20.07;79.76
18755;BME280;35061;47.664;9.166;2023-09-18T08:19:17;101257.13;;;20.05;79.96
18755;BME280;35061;47.664;9.166;2023-09-18T08:21:46;101271.45;;;20.03;79.83
18755;BME280;35061;47.664;9.166;2023-09-18T08:24:14;101283.39;;;19.99;79.91
18755;BME280;35061;47.664;9.166;2023-09-18T08:26:42;101280.25;;;19.97;79.55
18755;BME280;35061;47.664;9.166;2023-09-18T08:29:10;101277.41;;;19.91;78.62
18755;BME280;35061;47.664;9.166;2023-09-18T08:31:38;101294.37;;;19.87;79.96
18755;BME280;35061;47.664;9.166;2023-09-18T08:34:06;101292.15;;;19.74;80.95
18755;BME280;35061;47.664;9.166;2023-09-18T08:36:35;101308.37;;;19.64;81.77
18755;BME280;35061;47.664;9.166;2023-09-18T08:39:03;101292.84;;;19.61;83.17
18755;BME280;35061;47.664;9.166;2023-09-18T08:41:42;101298.85;;;19.44;84.47
18755;BME280;35061;47.664;9.166;2023-09-18T08:44:11;101299.21;;;19.35;85.42
18755;BME280;35061;47.664;9.166;2023-09-18T08:46:39;101301.47;;;19.23;85.87
18755;BME280;35061;47.664;9.166;2023-09-18T08:49:08;101315.30;;;19.11;87.12
18755;BME280;35061;47.664;9.166;2023-09-18T08:51:38;101313.27;;;19.00;88.35
18755;BME280;35061;47.664;9.166;2023-09-18T08:54:06;101318.34;;;18.94;88.75
18755;BME280;35061;47.664;9.166;2023-09-18T08:56:34;101345.55;;;18.91;89.16
18755;BME280;35061;47.664;9.166;2023-09-18T08:59:02;101352.68;;;18.84;89.86
18755;BME280;35061;47.664;9.166;2023-09-18T09:01:30;101362.52;;;18.75;90.25
18755;BME280;35061;47.664;9.166;2023-09-18T09:03:58;101363.90;;;18.68;90.52
18755;BME280;35061;47.664;9.166;2023-09-18T09:06:28;101387.11;;;18.68;90.51
18755;BME280;35061;47.664;9.166;2023-09-18T09:08:56;101412.16;;;18.66;90.76
18755;BME280;35061;47.664;9.166;2023-09-18T09:11:24;101425.08;;;18.65;91.38
18755;BME280;35061;47.664;9.166;2023-09-18T09:14:12;101416.67;;;18.61;91.99
18755;BME280;35061;47.664;9.166;2023-09-18T09:16:49;101401.14;;;18.59;93.57
18755;BME280;35061;47.664;9.166;2023-09-18T09:19:18;101403.30;;;18.52;93.46
18755;BME280;35061;47.664;9.166;2023-09-18T09:21:46;101409.38;;;18.49;93.91
18755;BME280;35061;47.664;9.166;2023-09-18T09:24:14;101404.94;;;18.42;94.90
18755;BME280;35061;47.664;9.166;2023-09-18T09:26:43;101398.66;;;18.32;96.11
18755;BME280;35061;47.664;9.166;2023-09-18T09:29:18;101403.70;;;18.26;97.63
18755;BME280;35061;47.664;9.166;2023-09-18T09:31:46;101409.28;;;18.18;98.86
18755;BME280;35061;47.664;9.166;2023-09-18T09:34:25;101410.33;;;18.09;98.98
18755;BME280;35061;47.664;9.166;2023-09-18T09:36:54;101403.53;;;18.01;100.00
18755;BME280;35061;47.664;9.166;2023-09-18T09:39:23;101419.32;;;17.94;100.00
18755;BME280;35061;47.664;9.166;2023-09-18T09:41:53;101420.17;;;17.83;100.00
18755;BME280;35061;47.664;9.166;2023-09-18T09:44:21;101422.85;;;17.70;100.00
18755;BME280;35061;47.664;9.166;2023-09-18T09:46:50;101423.37;;;17.63;100.00
18755;BME280;35061;47.664;9.166;2023-09-18T09:49:19;101419.68;;;17.56;100.00
18755;BME280;35061;47.664;9.166;2023-09-18T09:51:47;101414.71;;;17.46;100.00
18755;BME280;35061;47.664;9.166;2023-09-18T09:54:32;101415.50;;;17.40;100.00
18755;BME280;35061;47.664;9.166;2023-09-18T09:57:02;101425.77;;;17.36;100.00
18755;BME280;35061;47.664;9.166;2023-09-18T09:59:30;101434.98;;;17.28;100.00
18755;BME280;35061;47.664;9.166;2023-09-18T10:02:01;101425.02;;;17.24;100.00
18755;BME280;35061;47.664;9.166;2023-09-18T10:04:31;101420.80;;;17.19;100.00
18755;BME280;35061;47.664;9.166;2023-09-18T10:07:07;101422.88;;;17.19;100.00
18755;BME280;35061;47.664;9.166;2023-09-18T10:09:39;101422.63;;;17.16;100.00
18755;BME280;35061;47.664;9.166;2023-09-18T10:12:15;101410.79;;;17.14;100.00
18755;BME280;35061;47.664;9.166;2023-09-18T10:14:49;101407.91;;;17.14;100.00
18755;BME280;35061;47.664;9.166;2023-09-18T10:17:28;101400.29;;;17.11;100.00
18755;BME280;35061;47.664;9.166;2023-09-18T10:20:05;101422.88;;;17.13;100.00
18755;BME280;35061;47.664;9.166;2023-09-18T10:22:40;101415.27;;;17.15;100.00
18755;BME280;35061;47.664;9.166;2023-09-18T10:25:17;101419.23;;;17.12;100.00
18755;BME280;35061;47.664;9.166;2023-09-18T10:27:50;101405.52;;;17.13;100.00
18755;BME280;35061;47.664;9.166;2023-09-18T10:30:22;101385.80;;;17.11;100.00
18755;BME280;35061;47.664;9.166;2023-09-18T10:32:51;101396.34;;;17.03;100.00
18755;BME280;35061;47.664;9.166;2023-09-18T10:35:19;101400.29;;;17.06;100.00
18755;BME280;35061;47.664;9.166;2023-09-18T10:37:49;101396.34;;;17.09;100.00
18755;BME280;35061;47.664;9.166;2023-09-18T10:40:21;101406.08;;;17.11;100.00
18755;BME280;35061;47.664;9.166;2023-09-18T10:42:52;101428.67;;;17.13;100.00
18755;BME280;35061;47.664;9.166;2023-09-18T10:45:22;101421.05;;;17.15;100.00
18755;BME280;35061;47.664;9.166;2023-09-18T10:47:50;101414.19;;;17.13;100.00
18755;BME280;35061;47.664;9.166;2023-09-18T10:50:27;101410.52;;;17.12;100.00
18755;BME280;35061;47.664;9.166;2023-09-18T10:52:57;101417.63;;;17.17;100.00
18755;BME280;35061;47.664;9.166;2023-09-18T10:55:26;101410.79;;;17.20;100.00
18755;BME280;35061;47.664;9.166;2023-09-18T10:57:59;101413.17;;;17.22;100.00
18755;BME280;35061;47.664;9.166;2023-09-18T11:00:29;101424.45;;;17.25;100.00
18755;BME280;35061;47.664;9.166;2023-09-18T11:03:12;101430.77;;;17.29;100.00
18755;BME280;35061;47.664;9.166;2023-09-18T11:05:41;101438.42;;;17.33;100.00
18755;BME280;35061;47.664;9.166;2023-09-18T11:11:07;101428.41;;;17.34;100.00
18755;BME280;35061;47.664;9.166;2023-09-18T11:13:43;101427.07;;;17.35;100.00
18755;BME280;35061;47.664;9.166;2023-09-18T11:16:32;101437.63;;;17.38;100.00
18755;BME280;35061;47.664;9.166;2023-09-18T11:19:05;101426.55;;;17.42;100.00
18755;BME280;35061;47.664;9.166;2023-09-18T11:21:35;101419.98;;;17.47;100.00
18755;BME280;35061;47.664;9.166;2023-09-18T11:24:21;101427.86;;;17.52;100.00
18755;BME280;35061;47.664;9.166;2023-09-18T11:26:51;101420.99;;;17.55;100.00
18755;BME280;35061;47.664;9.166;2023-09-18T11:29:23;101407.59;;;17.58;100.00
18755;BME280;35061;47.664;9.166;2023-09-18T11:31:56;101398.10;;;17.57;100.00
18755;BME280;35061;47.664;9.166;2023-09-18T11:34:32;101383.91;;;17.60;100.00
18755;BME280;35061;47.664;9.166;2023-09-18T11:37:22;101361.51;;;17.60;100.00
18755;BME280;35061;47.664;9.166;2023-09-18T11:39:50;101351.50;;;17.61;100.00
18755;BME280;35061;47.664;9.166;2023-09-18T11:42:21;101339.93;;;17.61;100.00
18755;BME280;35061;47.664;9.166;2023-09-18T11:44:56;101344.93;;;17.61;100.00
18755;BME280;35061;47.664;9.166;2023-09-18T11:47:26;101355.98;;;17.62;100.00
18755;BME280;35061;47.664;9.166;2023-09-18T11:49:59;101363.08;;;17.67;100.00
18755;BME280;35061;47.664;9.166;2023-09-18T11:52:34;101351.77;;;17.69;100.00
18755;BME280;35061;47.664;9.166;2023-09-18T11:55:02;101347.80;;;17.72;100.00
18755;BME280;35061;47.664;9.166;2023-09-18T11:57:35;101338.55;;;17.74;100.00
18755;BME280;35061;47.664;9.166;2023-09-18T12:00:04;101321.94;;;17.80;100.00
18755;BME280;35061;47.664;9.166;2023-09-18T12:02:39;101319.55;;;17.84;100.00
18755;BME280;35061;47.664;9.166;2023-09-18T12:05:14;101316.38;;;17.88;100.00
18755;BME280;35061;47.664;9.166;2023-09-18T12:07:44;101338.52;;;17.91;100.00
18755;BME280;35061;47.664;9.166;2023-09-18T12:10:15;101346.66;;;17.92;100.00
18755;BME280;35061;47.664;9.166;2023-09-18T12:12:46;101346.37;;;17.96;100.00
18755;BME280;35061;47.664;9.166;2023-09-18T12:15:17;101336.91;;;17.95;100.00
18755;BME280;35061;47.664;9.166;2023-09-18T12:17:46;101327.14;;;17.98;100.00
18755;BME280;35061;47.664;9.166;2023-09-18T12:20:17;101333.19;;;18.00;100.00
18755;BME280;35061;47.664;9.166;2023-09-18T12:22:49;101323.15;;;18.02;100.00
18755;BME280;35061;47.664;9.166;2023-09-18T12:25:21;101328.19;;;18.01;100.00
18755;BME280;35061;47.664;9.166;2023-09-18T12:27:55;101314.23;;;18.05;100.00
18755;BME280;35061;47.664;9.166;2023-09-18T12:30:23;101322.40;;;18.07;100.00
18755;BME280;35061;47.664;9.166;2023-09-18T12:32:57;101326.84;;;18.08;100.00
18755;BME280;35061;47.664;9.166;2023-09-18T12:35:26;101328.45;;;18.09;100.00
18755;BME280;35061;47.664;9.166;2023-09-18T12:37:59;101311.28;;;18.11;100.00
18755;BME280;35061;47.664;9.166;2023-09-18T12:40:29;101315.23;;;18.13;100.00
18755;BME280;35061;47.664;9.166;2023-09-18T12:42:58;101307.29;;;18.20;100.00
18755;BME280;35061;47.664;9.166;2023-09-18T12:45:27;101288.52;;;18.26;100.00
18755;BME280;35061;47.664;9.166;2023-09-18T12:47:57;101290.62;;;18.32;100.00
18755;BME280;35061;47.664;9.166;2023-09-18T12:50:26;101286.88;;;18.37;100.00
18755;BME280;35061;47.664;9.166;2023-09-18T12:53:21;101291.86;;;18.42;100.00
18755;BME280;35061;47.664;9.166;2023-09-18T12:55:49;101309.22;;;18.48;100.00
18755;BME280;35061;47.664;9.166;2023-09-18T12:58:20;101309.16;;;18.53;100.00
18755;BME280;35061;47.664;9.166;2023-09-18T13:00:49;101320.44;;;18.63;100.00
18755;BME280;35061;47.664;9.166;2023-09-18T13:03:17;101326.68;;;18.73;100.00